Time;durP1;ratioP1;P1;durP2;ratioP2;P2;SDS_P1;SDS_P2;PMS_P1;PMS_P2;Temp;Humidity;BMP_temperature;BMP_pressure;BME280_temperature;BME280_humidity;BME280_pressure;Samples;Min_cycle;Max_cycle;Signal;HPM_P1;HPM_P2
2023/07/04 00:00:13;;;;;;;2.37;2.13;;;;;;;;;;5012583;28;20427;-70
2023/07/04 00:02:40;;;;;;;2.83;2.63;;;;;;;;;;4998811;28;20436;-70
2023/07/04 00:05:06;;;;;;;2.23;2.13;;;;;;;;;;5013394;28;20469;-70
2023/07/04 00:07:32;;;;;;;6.90;2.57;;;;;;;;;;5012903;28;20490;-70
2023/07/04 00:10:03;;;;;;;2.00;1.90;;;;;;;;;;5012958;28;20428;-70
2023/07/04 00:12:31;;;;;;;2.57;2.37;;;;;;;;;;5012874;28;20569;-70
2023/07/04 00:14:57;;;;;;;2.23;2.10;;;;;;;;;;5013259;28;20883;-70
2023/07/04 00:17:23;;;;;;;3.47;2.67;;;;;;;;;;5008616;28;20484;-70
2023/07/04 00:19:50;;;;;;;2.17;2.00;;;;;;;;;;5001595;28;20467;-70
2023/07/04 00:22:16;;;;;;;2.23;2.13;;;;;;;;;;5005935;28;20439;-70
2023/07/04 00:24:44;;;;;;;2.13;1.93;;;;;;;;;;5013071;28;20506;-69
2023/07/04 00:27:12;;;;;;;2.70;2.67;;;;;;;;;;4999687;28;20462;-70
2023/07/04 00:29:38;;;;;;;2.20;2.10;;;;;;;;;;5012711;28;20420;-70
2023/07/04 00:32:05;;;;;;;2.13;1.93;;;;;;;;;;5011439;28;20920;-70
2023/07/04 00:34:31;;;;;;;2.53;1.80;;;;;;;;;;5011731;28;20424;-69
2023/07/04 00:37:01;;;;;;;2.30;1.90;;;;;;;;;;5012625;28;20557;-69
2023/07/04 00:39:27;;;;;;;2.20;2.10;;;;;;;;;;5012324;28;20428;-70
2023/07/04 00:41:54;;;;;;;3.00;2.77;;;;;;;;;;5012609;28;20416;-70
2023/07/04 00:44:30;;;;;;;2.50;2.40;;;;;;;;;;5015772;28;20420;-70
2023/07/04 00:47:15;;;;;;;2.30;2.10;;;;;;;;;;5016536;28;20432;-70
2023/07/04 00:49:45;;;;;;;2.87;2.27;;;;;;;;;;5032231;28;20501;-70
2023/07/04 00:52:14;;;;;;;2.30;2.20;;;;;;;;;;5036080;28;20788;-70
2023/07/04 00:54:52;;;;;;;3.33;2.10;;;;;;;;;;5035703;28;20431;-70
2023/07/04 00:57:19;;;;;;;5.50;2.40;;;;;;;;;;5036302;28;20977;-70
2023/07/04 00:59:47;;;;;;;6.20;2.33;;;;;;;;;;5035491;28;20426;-70
2023/07/04 01:02:17;;;;;;;2.70;2.03;;;;;;;;;;5035574;28;20435;-70
2023/07/04 01:04:44;;;;;;;2.10;1.70;;;;;;;;;;5034383;28;20462;-70
2023/07/04 01:07:29;;;;;;;5.13;2.03;;;;;;;;;;5034289;28;20553;-70
2023/07/04 01:09:56;;;;;;;2.03;1.93;;;;;;;;;;5035328;28;20435;-70
2023/07/04 01:12:28;;;;;;;4.53;2.87;;;;;;;;;;5036124;28;20470;-70
2023/07/04 01:14:54;;;;;;;4.50;1.73;;;;;;;;;;5035923;28;20503;-70
2023/07/04 01:17:20;;;;;;;1.90;1.80;;;;;;;;;;5034593;28;20486;-69
2023/07/04 01:19:46;;;;;;;2.67;2.47;;;;;;;;;;5034663;28;20791;-70
2023/07/04 01:22:12;;;;;;;2.40;2.00;;;;;;;;;;5035818;28;20430;-70
2023/07/04 01:24:43;;;;;;;2.10;1.90;;;;;;;;;;5033505;28;20454;-70
2023/07/04 01:27:10;;;;;;;7.13;2.50;;;;;;;;;;5034689;28;20192;-70
2023/07/04 01:29:36;;;;;;;2.10;2.00;;;;;;;;;;5042797;28;20447;-70
2023/07/04 01:32:03;;;;;;;2.20;2.20;;;;;;;;;;5039704;28;20447;-70
2023/07/04 01:34:29;;;;;;;2.93;2.73;;;;;;;;;;5034815;28;20423;-70
2023/07/04 01:36:55;;;;;;;4.97;2.53;;;;;;;;;;5034864;28;20482;-70
2023/07/04 01:39:21;;;;;;;2.13;1.90;;;;;;;;;;5034617;28;20447;-70
2023/07/04 01:41:47;;;;;;;2.53;2.33;;;;;;;;;;5035521;28;20534;-70
2023/07/04 01:44:15;;;;;;;4.03;2.50;;;;;;;;;;5047170;28;20431;-70
2023/07/04 01:46:41;;;;;;;4.67;3.37;;;;;;;;;;5035040;28;20466;-70
2023/07/04 01:49:07;;;;;;;3.30;3.10;;;;;;;;;;5034104;28;20501;-70
2023/07/04 01:51:37;;;;;;;6.13;2.17;;;;;;;;;;5034408;28;20450;-70
2023/07/04 01:54:04;;;;;;;2.83;1.80;;;;;;;;;;5034355;28;20450;-70
2023/07/04 01:56:31;;;;;;;1.40;1.40;;;;;;;;;;5034885;28;20514;-70
2023/07/04 01:58:58;;;;;;;3.63;1.37;;;;;;;;;;5050661;28;20459;-69
2023/07/04 02:01:24;;;;;;;1.93;1.57;;;;;;;;;;5033878;28;20431;-70
2023/07/04 02:03:50;;;;;;;1.70;1.60;;;;;;;;;;5035170;28;20446;-70
2023/07/04 02:06:17;;;;;;;3.10;1.67;;;;;;;;;;5034674;28;20477;-70
2023/07/04 02:08:42;;;;;;;2.20;2.00;;;;;;;;;;5034672;28;20439;-70
2023/07/04 02:11:09;;;;;;;1.90;1.90;;;;;;;;;;5051200;28;20438;-70
2023/07/04 02:13:35;;;;;;;4.60;1.87;;;;;;;;;;5035211;28;20443;-70
2023/07/04 02:16:01;;;;;;;3.53;2.20;;;;;;;;;;5034518;28;20442;-70
2023/07/04 02:18:27;;;;;;;2.10;1.90;;;;;;;;;;5035317;28;20491;-70
2023/07/04 02:20:53;;;;;;;5.30;1.57;;;;;;;;;;5037562;28;20442;-70
2023/07/04 02:23:19;;;;;;;5.47;1.80;;;;;;;;;;5034390;28;20872;-70
2023/07/04 02:25:45;;;;;;;1.63;1.63;;;;;;;;;;5044982;28;20850;-70
2023/07/04 02:28:11;;;;;;;4.33;2.10;;;;;;;;;;5041257;28;20447;-70
2023/07/04 02:30:38;;;;;;;2.00;1.90;;;;;;;;;;5033085;28;20443;-69
2023/07/04 02:33:04;;;;;;;3.80;1.77;;;;;;;;;;5034730;28;20462;-70
2023/07/04 02:35:30;;;;;;;2.50;2.30;;;;;;;;;;5034686;28;20454;-69
2023/07/04 02:37:57;;;;;;;1.30;1.30;;;;;;;;;;5034673;28;20990;-70
2023/07/04 02:40:23;;;;;;;4.37;1.73;;;;;;;;;;5033666;28;20526;-70
2023/07/04 02:42:49;;;;;;;1.80;1.80;;;;;;;;;;5034273;28;20427;-70
2023/07/04 02:45:15;;;;;;;4.50;2.23;;;;;;;;;;5034176;28;20459;-69
2023/07/04 02:47:42;;;;;;;1.97;1.97;;;;;;;;;;5033695;28;20533;-70
2023/07/04 02:50:08;;;;;;;1.67;1.50;;;;;;;;;;5033693;28;20767;-70
2023/07/04 02:52:34;;;;;;;2.33;2.00;;;;;;;;;;5034472;28;20411;-70
2023/07/04 02:55:00;;;;;;;1.67;1.57;;;;;;;;;;5034318;28;20415;-70
2023/07/04 02:57:26;;;;;;;1.97;1.90;;;;;;;;;;5033969;28;20474;-70
2023/07/04 02:59:52;;;;;;;1.90;1.40;;;;;;;;;;5032768;28;20787;-70
2023/07/04 03:02:18;;;;;;;1.60;1.60;;;;;;;;;;5033033;28;20514;-69
2023/07/04 03:04:47;;;;;;;1.93;1.93;;;;;;;;;;5033834;28;21085;-70
2023/07/04 03:07:13;;;;;;;6.23;2.03;;;;;;;;;;5032979;28;20805;-69
2023/07/04 03:09:39;;;;;;;1.80;1.80;;;;;;;;;;5033397;28;20514;-70
2023/07/04 03:12:05;;;;;;;1.80;1.80;;;;;;;;;;5033376;28;20946;-70
2023/07/04 03:14:32;;;;;;;3.33;1.80;;;;;;;;;;5033608;28;20494;-70
2023/07/04 03:16:58;;;;;;;1.10;1.10;;;;;;;;;;5034798;28;20467;-70
2023/07/04 03:19:24;;;;;;;2.67;2.47;;;;;;;;;;5032224;28;20458;-70
2023/07/04 03:21:50;;;;;;;2.37;2.27;;;;;;;;;;5034080;28;20458;-69
2023/07/04 03:24:15;;;;;;;2.07;1.90;;;;;;;;;;5033115;28;20472;-70
2023/07/04 03:26:45;;;;;;;2.73;2.60;;;;;;;;;;5043633;28;20504;-70
2023/07/04 03:29:11;;;;;;;1.77;1.77;;;;;;;;;;5032774;28;20442;-70
2023/07/04 03:31:37;;;;;;;2.10;2.00;;;;;;;;;;5031321;28;20427;-70
2023/07/04 03:34:03;;;;;;;2.20;1.47;;;;;;;;;;5033535;28;20778;-70
2023/07/04 03:36:28;;;;;;;1.40;1.40;;;;;;;;;;5035585;28;20447;-70
2023/07/04 03:38:55;;;;;;;1.63;1.50;;;;;;;;;;5033201;28;20447;-70
2023/07/04 03:41:21;;;;;;;2.47;2.40;;;;;;;;;;5032618;28;20407;-69
2023/07/04 03:43:47;;;;;;;1.70;1.63;;;;;;;;;;5041837;28;20515;-69
2023/07/04 03:46:13;;;;;;;1.37;1.37;;;;;;;;;;5031955;28;20447;-69
2023/07/04 03:48:39;;;;;;;5.27;1.60;;;;;;;;;;5047892;28;20482;-70
2023/07/04 03:51:05;;;;;;;7.37;1.23;;;;;;;;;;5036171;28;20435;-70
2023/07/04 03:53:32;;;;;;;2.00;1.90;;;;;;;;;;5038091;28;20958;-70
2023/07/04 03:55:58;;;;;;;1.87;1.87;;;;;;;;;;5030174;28;20435;-70
2023/07/04 03:58:24;;;;;;;1.60;1.60;;;;;;;;;;5052957;28;21052;-70
2023/07/04 04:00:51;;;;;;;3.93;1.50;;;;;;;;;;5052134;28;20414;-70
2023/07/04 04:03:17;;;;;;;1.80;1.70;;;;;;;;;;5039891;28;20445;-70
2023/07/04 04:05:43;;;;;;;1.87;1.77;;;;;;;;;;5043243;28;20445;-70
2023/07/04 04:08:09;;;;;;;1.60;1.60;;;;;;;;;;5042894;28;20943;-69
2023/07/04 04:10:36;;;;;;;1.67;1.57;;;;;;;;;;5031772;28;20437;-69
2023/07/04 04:13:02;;;;;;;2.80;1.67;;;;;;;;;;5032461;28;20438;-70
2023/07/04 04:15:28;;;;;;;2.80;1.83;;;;;;;;;;5037053;28;20443;-70
2023/07/04 04:17:55;;;;;;;1.50;1.47;;;;;;;;;;5031582;28;20555;-70
2023/07/04 04:20:21;;;;;;;3.03;1.53;;;;;;;;;;5031681;28;20430;-70
2023/07/04 04:22:48;;;;;;;2.13;2.03;;;;;;;;;;5031788;28;20544;-69
2023/07/04 04:25:15;;;;;;;2.30;2.07;;;;;;;;;;5032180;28;20766;-70
2023/07/04 04:27:41;;;;;;;2.43;1.83;;;;;;;;;;5032127;28;20516;-70
2023/07/04 04:30:09;;;;;;;1.50;1.40;;;;;;;;;;5032183;28;20473;-70
2023/07/04 04:32:36;;;;;;;1.37;1.37;;;;;;;;;;5031816;28;20415;-70
2023/07/04 04:35:03;;;;;;;1.50;1.40;;;;;;;;;;5032363;28;20431;-70
2023/07/04 04:37:29;;;;;;;1.90;1.80;;;;;;;;;;5031874;28;20463;-70
2023/07/04 04:39:55;;;;;;;1.17;1.17;;;;;;;;;;5031925;28;20431;-69
2023/07/04 04:42:23;;;;;;;1.10;1.10;;;;;;;;;;5032471;28;20427;-70
2023/07/04 04:44:49;;;;;;;2.40;1.77;;;;;;;;;;5031221;28;20508;-70
2023/07/04 04:47:15;;;;;;;1.60;1.60;;;;;;;;;;5031919;28;20427;-70
2023/07/04 04:49:41;;;;;;;2.30;1.60;;;;;;;;;;5030873;28;20869;-70
2023/07/04 04:52:07;;;;;;;2.13;2.10;;;;;;;;;;5046895;28;20436;-69
2023/07/04 04:54:33;;;;;;;1.53;1.43;;;;;;;;;;5031913;28;20489;-69
2023/07/04 04:56:59;;;;;;;1.73;1.67;;;;;;;;;;5032428;28;20463;-69
2023/07/04 04:59:25;;;;;;;2.53;1.50;;;;;;;;;;5031816;28;20427;-70
2023/07/04 05:01:51;;;;;;;2.43;2.10;;;;;;;;;;5031277;28;20463;-70
2023/07/04 05:04:17;;;;;;;1.37;1.27;;;;;;;;;;5031483;28;20950;-70
2023/07/04 05:06:43;;;;;;;2.30;2.10;;;;;;;;;;5035911;28;20467;-70
2023/07/04 05:09:09;;;;;;;3.60;1.70;;;;;;;;;;5031892;28;22194;-70
2023/07/04 05:11:35;;;;;;;1.60;1.60;;;;;;;;;;5032419;28;20942;-69
2023/07/04 05:14:02;;;;;;;2.43;2.17;;;;;;;;;;5031129;28;21014;-70
2023/07/04 05:16:28;;;;;;;1.97;1.87;;;;;;;;;;5036609;28;20442;-70
2023/07/04 05:18:54;;;;;;;1.43;1.33;;;;;;;;;;5031623;28;20528;-70
2023/07/04 05:21:21;;;;;;;1.70;1.70;;;;;;;;;;5034117;28;20534;-70
2023/07/04 05:23:48;;;;;;;1.20;1.20;;;;;;;;;;5032242;28;20934;-70
2023/07/04 05:26:19;;;;;;;1.53;1.43;;;;;;;;;;5032197;28;20802;-70
2023/07/04 05:28:45;;;;;;;2.43;1.50;;;;;;;;;;5026754;28;20443;-70
2023/07/04 05:31:12;;;;;;;2.10;1.43;;;;;;;;;;5035101;28;20439;-70
2023/07/04 05:33:39;;;;;;;1.90;1.90;;;;;;;;;;5029052;28;20431;-70
2023/07/04 05:36:06;;;;;;;3.70;1.97;;;;;;;;;;5047003;28;20533;-70
2023/07/04 05:38:32;;;;;;;2.50;1.83;;;;;;;;;;5040828;28;21001;-70
2023/07/04 05:40:58;;;;;;;3.13;2.10;;;;;;;;;;5033369;28;20435;-69
2023/07/04 05:43:24;;;;;;;6.60;2.30;;;;;;;;;;5045353;28;20456;-70
2023/07/04 05:45:51;;;;;;;1.73;1.73;;;;;;;;;;5033088;28;20435;-70
2023/07/04 05:48:17;;;;;;;2.80;1.27;;;;;;;;;;5037059;28;20981;-69
2023/07/04 05:50:53;;;;;;;1.83;1.70;;;;;;;;;;5048212;28;20563;-70
2023/07/04 05:53:22;;;;;;;2.43;1.67;;;;;;;;;;5036088;28;20442;-70
2023/07/04 05:55:48;;;;;;;11.43;3.30;;;;;;;;;;5033171;28;20420;-70
2023/07/04 05:58:14;;;;;;;5.70;1.70;;;;;;;;;;5034862;28;20484;-69
2023/07/04 06:00:41;;;;;;;2.80;2.33;;;;;;;;;;5033675;28;20443;-71
2023/07/04 06:03:07;;;;;;;1.40;1.40;;;;;;;;;;5016489;28;20451;-69
2023/07/04 06:05:38;;;;;;;1.40;1.40;;;;;;;;;;5014893;28;20504;-69
2023/07/04 06:08:04;;;;;;;5.37;2.23;;;;;;;;;;5024916;28;20459;-69
2023/07/04 06:10:30;;;;;;;1.57;1.33;;;;;;;;;;5029604;28;20519;-69
2023/07/04 06:12:56;;;;;;;1.97;1.97;;;;;;;;;;5024509;28;21124;-70
2023/07/04 06:15:22;;;;;;;3.60;2.30;;;;;;;;;;5022246;28;20446;-69
2023/07/04 06:17:48;;;;;;;3.67;1.70;;;;;;;;;;5030463;28;20487;-70
2023/07/04 06:20:14;;;;;;;10.57;1.83;;;;;;;;;;5031492;28;20443;-69
2023/07/04 06:22:40;;;;;;;2.47;2.30;;;;;;;;;;5032695;28;20447;-69
2023/07/04 06:25:06;;;;;;;1.70;1.70;;;;;;;;;;5031465;28;20810;-69
2023/07/04 06:27:33;;;;;;;3.60;2.17;;;;;;;;;;5012951;28;20451;-69
2023/07/04 06:29:59;;;;;;;2.10;2.00;;;;;;;;;;5028375;28;20470;-70
2023/07/04 06:32:24;;;;;;;2.10;2.10;;;;;;;;;;5025396;28;20782;-69
2023/07/04 06:34:50;;;;;;;1.83;1.73;;;;;;;;;;5030399;28;20448;-70
2023/07/04 06:37:17;;;;;;;1.60;1.60;;;;;;;;;;5029361;28;20841;-71
2023/07/04 06:39:44;;;;;;;2.20;1.50;;;;;;;;;;5028481;28;20596;-70
2023/07/04 06:42:09;;;;;;;16.73;2.00;;;;;;;;;;5028600;28;20803;-70
2023/07/04 06:44:35;;;;;;;1.63;1.53;;;;;;;;;;5026686;28;20451;-70
2023/07/04 06:47:01;;;;;;;4.00;1.70;;;;;;;;;;5026627;28;20502;-70
2023/07/04 06:49:28;;;;;;;1.73;1.63;;;;;;;;;;5023015;28;20478;-70
2023/07/04 06:51:54;;;;;;;1.50;1.50;;;;;;;;;;5026428;28;20923;-69
2023/07/04 06:54:20;;;;;;;2.87;1.93;;;;;;;;;;5028259;28;20505;-69
2023/07/04 06:56:46;;;;;;;1.90;1.90;;;;;;;;;;5021582;28;20896;-69
2023/07/04 06:59:13;;;;;;;2.30;2.20;;;;;;;;;;5022153;28;20454;-69
2023/07/04 07:01:39;;;;;;;1.63;1.57;;;;;;;;;;5024459;28;20816;-69
2023/07/04 07:04:06;;;;;;;3.60;2.10;;;;;;;;;;5027959;28;20943;-70
2023/07/04 07:06:32;;;;;;;1.50;1.40;;;;;;;;;;5023837;28;20443;-69
2023/07/04 07:08:58;;;;;;;1.53;1.53;;;;;;;;;;5028132;28;20439;-70
2023/07/04 07:11:25;;;;;;;3.03;2.13;;;;;;;;;;5025513;28;20445;-70
2023/07/04 07:13:51;;;;;;;1.67;1.67;;;;;;;;;;5021285;28;20443;-69
2023/07/04 07:16:18;;;;;;;4.30;2.50;;;;;;;;;;5027071;28;20462;-69
2023/07/04 07:18:45;;;;;;;3.43;2.10;;;;;;;;;;5025539;28;20518;-69
2023/07/04 07:21:12;;;;;;;1.60;1.60;;;;;;;;;;5022847;28;20482;-69
2023/07/04 07:23:38;;;;;;;3.13;2.13;;;;;;;;;;5023811;28;20453;-69
2023/07/04 07:26:06;;;;;;;3.17;1.80;;;;;;;;;;5024432;28;20432;-69
2023/07/04 07:28:33;;;;;;;1.73;1.63;;;;;;;;;;5024206;28;20454;-69
2023/07/04 07:31:03;;;;;;;11.00;1.77;;;;;;;;;;5021001;28;20444;-70
2023/07/04 07:33:33;;;;;;;1.97;1.87;;;;;;;;;;5021093;28;20986;-70
2023/07/04 07:35:59;;;;;;;3.90;1.43;;;;;;;;;;5030086;28;20447;-70
2023/07/04 07:38:25;;;;;;;2.10;2.10;;;;;;;;;;5031607;28;20570;-71
2023/07/04 07:40:52;;;;;;;2.13;2.03;;;;;;;;;;5031429;28;20486;-70
2023/07/04 07:43:18;;;;;;;1.80;1.80;;;;;;;;;;5031762;28;20442;-70
2023/07/04 07:45:44;;;;;;;1.27;1.27;;;;;;;;;;5031098;28;20466;-70
2023/07/04 07:48:10;;;;;;;6.90;1.93;;;;;;;;;;5032042;28;20467;-70
2023/07/04 07:50:36;;;;;;;4.30;1.80;;;;;;;;;;5032269;28;20435;-70
2023/07/04 07:53:02;;;;;;;1.90;1.77;;;;;;;;;;5031730;28;20419;-69
2023/07/04 07:55:28;;;;;;;2.80;1.47;;;;;;;;;;5048103;28;20439;-70
2023/07/04 07:57:54;;;;;;;1.50;1.50;;;;;;;;;;5047725;28;20474;-70
2023/07/04 08:00:20;;;;;;;1.40;1.40;;;;;;;;;;5039478;28;20465;-70
2023/07/04 08:02:46;;;;;;;1.63;1.53;;;;;;;;;;5051774;28;20983;-70
2023/07/04 08:05:12;;;;;;;1.60;1.60;;;;;;;;;;5030914;28;20427;-70
2023/07/04 08:07:38;;;;;;;3.47;1.73;;;;;;;;;;5032541;28;20446;-64
2023/07/04 08:10:04;;;;;;;1.50;1.40;;;;;;;;;;5031316;28;20431;-63
2023/07/04 08:12:30;;;;;;;2.90;1.67;;;;;;;;;;5032355;28;20435;-64
2023/07/04 08:14:56;;;;;;;2.00;1.90;;;;;;;;;;5032622;28;20418;-63
2023/07/04 08:17:22;;;;;;;1.83;1.73;;;;;;;;;;5032837;28;20511;-64
2023/07/04 08:19:49;;;;;;;10.63;2.07;;;;;;;;;;5032000;28;20814;-64
2023/07/04 08:22:15;;;;;;;2.03;1.90;;;;;;;;;;5032554;28;20776;-63
2023/07/04 08:24:41;;;;;;;1.60;1.50;;;;;;;;;;5032862;28;20469;-64
2023/07/04 08:27:07;;;;;;;1.67;1.57;;;;;;;;;;5032450;28;20419;-64
2023/07/04 08:29:33;;;;;;;1.67;1.57;;;;;;;;;;5031169;28;20431;-70
2023/07/04 08:31:59;;;;;;;2.90;1.87;;;;;;;;;;5031530;28;20522;-69
2023/07/04 08:34:25;;;;;;;1.93;1.83;;;;;;;;;;5032765;28;20412;-70
2023/07/04 08:36:51;;;;;;;1.70;1.30;;;;;;;;;;5032391;28;20461;-70
2023/07/04 08:39:18;;;;;;;6.47;2.10;;;;;;;;;;5032226;28;20419;-70
2023/07/04 08:41:44;;;;;;;1.37;1.30;;;;;;;;;;5032695;28;20415;-70
2023/07/04 08:44:36;;;;;;;7.73;1.67;;;;;;;;;;5031507;28;20514;-69
2023/07/04 08:47:02;;;;;;;1.70;1.60;;;;;;;;;;5027865;28;20423;-70
2023/07/04 08:49:40;;;;;;;1.60;1.60;;;;;;;;;;5031344;28;21052;-70
2023/07/04 08:52:18;;;;;;;2.23;2.03;;;;;;;;;;5032253;28;20521;-70
2023/07/04 08:54:44;;;;;;;12.10;1.83;;;;;;;;;;5046064;28;20419;-69
2023/07/04 08:57:29;;;;;;;2.63;1.63;;;;;;;;;;5031402;28;20510;-70
2023/07/04 09:00:04;;;;;;;1.67;1.67;;;;;;;;;;5030980;28;20431;-70
2023/07/04 09:02:46;;;;;;;3.17;1.83;;;;;;;;;;5024486;28;20478;-70
2023/07/04 09:05:27;;;;;;;1.37;1.37;;;;;;;;;;5032460;28;20931;-70
2023/07/04 09:08:16;;;;;;;1.43;1.40;;;;;;;;;;5033684;28;20451;-70
2023/07/04 09:10:44;;;;;;;1.80;1.70;;;;;;;;;;5033885;28;20446;-70
2023/07/04 09:13:17;;;;;;;1.83;1.50;;;;;;;;;;5035011;28;20477;-70
2023/07/04 09:15:44;;;;;;;2.47;2.27;;;;;;;;;;5035641;28;20443;-69
2023/07/04 09:18:23;;;;;;;2.10;2.00;;;;;;;;;;5035865;28;20490;-70
2023/07/04 09:20:53;;;;;;;1.50;1.40;;;;;;;;;;5021231;28;20922;-70
2023/07/04 09:23:22;;;;;;;3.40;2.00;;;;;;;;;;5035384;28;20466;-69
2023/07/04 09:25:49;;;;;;;6.83;1.83;;;;;;;;;;5036125;28;20502;-69
2023/07/04 09:28:15;;;;;;;2.13;2.03;;;;;;;;;;5035862;28;20580;-70
2023/07/04 09:30:41;;;;;;;3.13;1.93;;;;;;;;;;5034681;28;20798;-69
2023/07/04 09:33:09;;;;;;;3.23;1.70;;;;;;;;;;5035765;28;20942;-70
2023/07/04 09:35:36;;;;;;;1.40;1.40;;;;;;;;;;5035856;28;20502;-69
2023/07/04 09:38:03;;;;;;;1.67;1.67;;;;;;;;;;5034981;28;20505;-70
2023/07/04 09:40:39;;;;;;;7.67;1.77;;;;;;;;;;5035335;28;20433;-70
2023/07/04 09:43:05;;;;;;;1.80;1.80;;;;;;;;;;5035811;28;20466;-70
2023/07/04 09:45:32;;;;;;;2.30;2.20;;;;;;;;;;5035366;28;20443;-69
2023/07/04 09:47:58;;;;;;;3.83;2.30;;;;;;;;;;5035368;28;20458;-70
2023/07/04 09:50:26;;;;;;;1.53;1.47;;;;;;;;;;5035268;28;20420;-70
2023/07/04 09:53:01;;;;;;;2.30;1.43;;;;;;;;;;5035498;28;20418;-69
2023/07/04 09:55:28;;;;;;;4.03;2.23;;;;;;;;;;5035559;28;20418;-70
2023/07/04 09:58:14;;;;;;;1.73;1.63;;;;;;;;;;5034869;28;21025;-69
2023/07/04 10:00:40;;;;;;;1.80;1.70;;;;;;;;;;5002849;28;20528;-70
2023/07/04 10:03:08;;;;;;;5.30;1.80;;;;;;;;;;5002709;28;20509;-69
2023/07/04 10:05:35;;;;;;;3.33;1.77;;;;;;;;;;5015600;28;20423;-69
2023/07/04 10:08:09;;;;;;;1.73;1.73;;;;;;;;;;5015455;28;20421;-70
2023/07/04 10:10:40;;;;;;;1.50;1.47;;;;;;;;;;5012496;28;20436;-70
2023/07/04 10:13:07;;;;;;;1.27;1.27;;;;;;;;;;5012894;28;21034;-70
2023/07/04 10:15:41;;;;;;;2.07;1.87;;;;;;;;;;5005851;28;20571;-70
2023/07/04 10:18:07;;;;;;;2.07;1.87;;;;;;;;;;5014015;28;20483;-70
2023/07/04 10:20:37;;;;;;;1.30;1.30;;;;;;;;;;5010234;28;20435;-70
2023/07/04 10:23:03;;;;;;;1.83;1.50;;;;;;;;;;5004996;28;20444;-70
2023/07/04 10:25:30;;;;;;;1.70;1.60;;;;;;;;;;5013902;28;20416;-70
2023/07/04 10:27:58;;;;;;;1.97;1.83;;;;;;;;;;5013346;28;20424;-70
2023/07/04 10:30:29;;;;;;;3.57;1.80;;;;;;;;;;5013203;28;20408;-70
2023/07/04 10:33:03;;;;;;;1.50;1.50;;;;;;;;;;5013536;28;20507;-70
2023/07/04 10:35:31;;;;;;;1.60;1.50;;;;;;;;;;5012435;28;20424;-70
2023/07/04 10:37:59;;;;;;;1.43;1.00;;;;;;;;;;5013117;28;20513;-69
2023/07/04 10:40:26;;;;;;;1.33;1.33;;;;;;;;;;5013365;28;20416;-70
2023/07/04 10:42:52;;;;;;;3.70;1.50;;;;;;;;;;5013593;28;20416;-70
2023/07/04 10:45:19;;;;;;;2.37;1.93;;;;;;;;;;5014054;28;22053;-69
2023/07/04 10:47:46;;;;;;;4.40;1.43;;;;;;;;;;5012008;28;20585;-71
2023/07/04 10:50:16;;;;;;;2.60;1.50;;;;;;;;;;5051853;28;20444;-70
2023/07/04 10:52:44;;;;;;;0.90;0.90;;;;;;;;;;5041050;28;20525;-70
2023/07/04 10:55:15;;;;;;;1.00;1.00;;;;;;;;;;5032696;28;20439;-70
2023/07/04 10:57:56;;;;;;;6.40;1.80;;;;;;;;;;5032855;28;20490;-70
2023/07/04 11:00:36;;;;;;;2.63;1.27;;;;;;;;;;5032112;28;20419;-70
2023/07/04 11:03:05;;;;;;;2.97;1.00;;;;;;;;;;5032619;28;20422;-70
2023/07/04 11:05:35;;;;;;;1.43;1.33;;;;;;;;;;5044861;28;20501;-70
2023/07/04 11:08:01;;;;;;;1.13;1.13;;;;;;;;;;5060182;28;20415;-70
2023/07/04 11:10:28;;;;;;;1.00;1.00;;;;;;;;;;5068485;28;20483;-70
2023/07/04 11:12:57;;;;;;;1.60;1.50;;;;;;;;;;5041169;28;20562;-70
2023/07/04 11:15:28;;;;;;;1.00;1.00;;;;;;;;;;5032730;28;20980;-70
2023/07/04 11:17:54;;;;;;;1.47;1.37;;;;;;;;;;5032948;28;20482;-70
2023/07/04 11:20:30;;;;;;;0.97;0.83;;;;;;;;;;5032098;28;20427;-70
2023/07/04 11:22:57;;;;;;;1.23;1.23;;;;;;;;;;5032693;28;20442;-70
2023/07/04 11:25:32;;;;;;;1.47;1.40;;;;;;;;;;5032789;28;20434;-70
2023/07/04 11:28:18;;;;;;;2.87;1.37;;;;;;;;;;5031082;28;21052;-70
2023/07/04 11:30:45;;;;;;;1.20;1.20;;;;;;;;;;5024390;28;20501;-70
2023/07/04 11:33:30;;;;;;;0.77;0.77;;;;;;;;;;5033332;28;20431;-70
2023/07/04 11:35:56;;;;;;;1.20;1.20;;;;;;;;;;5033468;28;20497;-70
2023/07/04 11:38:22;;;;;;;1.27;1.27;;;;;;;;;;5032734;28;20993;-69
2023/07/04 11:40:54;;;;;;;1.13;1.10;;;;;;;;;;5028804;28;20534;-70
2023/07/04 11:43:27;;;;;;;1.60;1.60;;;;;;;;;;5030460;28;20810;-70
2023/07/04 11:45:55;;;;;;;3.07;1.30;;;;;;;;;;5036948;28;20419;-70
2023/07/04 11:48:22;;;;;;;12.43;1.40;;;;;;;;;;5031931;28;20982;-70
2023/07/04 11:50:50;;;;;;;7.60;1.60;;;;;;;;;;5032623;28;20434;-70
2023/07/04 11:53:16;;;;;;;1.40;1.30;;;;;;;;;;5032593;28;20433;-70
2023/07/04 11:55:42;;;;;;;1.20;1.20;;;;;;;;;;5032239;28;20423;-69
2023/07/04 11:58:08;;;;;;;1.63;1.50;;;;;;;;;;5032454;28;20230;-70
2023/07/04 12:00:37;;;;;;;6.83;1.57;;;;;;;;;;5031546;28;20502;-70
2023/07/04 12:03:19;;;;;;;1.50;1.17;;;;;;;;;;5032488;28;20427;-70
2023/07/04 12:05:46;;;;;;;3.93;1.00;;;;;;;;;;5040881;28;20485;-70
2023/07/04 12:08:22;;;;;;;1.37;1.37;;;;;;;;;;5033704;28;20423;-70
2023/07/04 12:10:48;;;;;;;1.20;1.20;;;;;;;;;;5039044;28;20786;-70
2023/07/04 12:13:18;;;;;;;2.90;1.20;;;;;;;;;;5041910;28;20465;-70
2023/07/04 12:15:48;;;;;;;1.70;1.40;;;;;;;;;;5031755;28;20423;-70
2023/07/04 12:18:17;;;;;;;2.87;1.40;;;;;;;;;;5032523;28;20482;-70
2023/07/04 12:20:44;;;;;;;1.43;1.33;;;;;;;;;;5030450;28;20427;-70
2023/07/04 12:23:10;;;;;;;1.37;1.30;;;;;;;;;;5032329;28;20431;-70
2023/07/04 12:25:40;;;;;;;1.67;1.67;;;;;;;;;;5032216;28;20446;-69
2023/07/04 12:28:06;;;;;;;1.00;1.00;;;;;;;;;;5032479;28;20466;-70
2023/07/04 12:30:33;;;;;;;2.00;1.50;;;;;;;;;;5030970;28;20495;-70
2023/07/04 12:32:59;;;;;;;1.23;1.13;;;;;;;;;;5032415;28;20473;-70
2023/07/04 12:35:27;;;;;;;2.27;1.17;;;;;;;;;;5030877;28;20419;-70
2023/07/04 12:37:55;;;;;;;1.80;1.50;;;;;;;;;;5032440;28;20478;-70
2023/07/04 12:40:24;;;;;;;0.90;0.90;;;;;;;;;;5035517;28;20443;-70
2023/07/04 12:42:50;;;;;;;1.90;0.90;;;;;;;;;;5029270;28;20534;-70
2023/07/04 12:45:20;;;;;;;1.07;1.07;;;;;;;;;;5035940;28;20728;-70
2023/07/04 12:47:46;;;;;;;1.33;1.33;;;;;;;;;;5035884;28;20461;-70
2023/07/04 12:50:15;;;;;;;1.10;1.00;;;;;;;;;;5047525;28;20494;-70
2023/07/04 12:52:41;;;;;;;1.53;1.13;;;;;;;;;;5018409;28;20451;-69
2023/07/04 12:55:11;;;;;;;1.70;1.70;;;;;;;;;;5039960;28;20430;-69
2023/07/04 12:57:38;;;;;;;2.43;1.00;;;;;;;;;;5036122;28;20967;-69
2023/07/04 13:00:12;;;;;;;0.83;0.83;;;;;;;;;;5035966;28;20942;-69
2023/07/04 13:02:38;;;;;;;1.70;1.30;;;;;;;;;;5056443;28;20513;-70
2023/07/04 13:05:05;;;;;;;1.50;1.40;;;;;;;;;;5053056;28;20484;-70
2023/07/04 13:07:31;;;;;;;1.13;1.10;;;;;;;;;;5037969;28;20468;-70
2023/07/04 13:10:00;;;;;;;1.13;1.13;;;;;;;;;;5017802;28;20447;-70
2023/07/04 13:12:31;;;;;;;2.87;1.50;;;;;;;;;;5043430;28;20418;-69
2023/07/04 13:15:04;;;;;;;1.37;0.93;;;;;;;;;;5037121;28;20453;-70
2023/07/04 13:17:30;;;;;;;1.10;1.10;;;;;;;;;;5036894;28;20505;-70
2023/07/04 13:19:56;;;;;;;1.37;1.07;;;;;;;;;;5044786;28;20521;-70
2023/07/04 13:22:25;;;;;;;1.10;1.10;;;;;;;;;;5044266;28;20520;-70
2023/07/04 13:24:52;;;;;;;0.93;0.93;;;;;;;;;;5038036;28;20465;-70
2023/07/04 13:27:28;;;;;;;0.83;0.83;;;;;;;;;;5035559;28;20844;-70
2023/07/04 13:29:58;;;;;;;1.33;1.33;;;;;;;;;;5038925;28;20437;-70
2023/07/04 13:32:25;;;;;;;0.73;0.73;;;;;;;;;;5041937;28;20875;-70
2023/07/04 13:34:52;;;;;;;1.10;1.10;;;;;;;;;;5033423;28;20526;-70
2023/07/04 13:37:18;;;;;;;0.80;0.80;;;;;;;;;;5035881;28;20467;-70
2023/07/04 13:39:44;;;;;;;2.60;1.00;;;;;;;;;;5027262;28;20457;-70
2023/07/04 13:42:11;;;;;;;0.70;0.70;;;;;;;;;;5033262;28;20927;-70
2023/07/04 13:44:37;;;;;;;1.20;1.20;;;;;;;;;;5030936;28;20493;-70
2023/07/04 13:47:06;;;;;;;3.50;1.07;;;;;;;;;;5011766;28;20435;-70
2023/07/04 13:49:32;;;;;;;1.13;1.13;;;;;;;;;;5029354;28;21427;-70
2023/07/04 13:51:58;;;;;;;0.97;0.97;;;;;;;;;;5032098;28;20451;-70
2023/07/04 13:54:24;;;;;;;2.57;1.00;;;;;;;;;;5031704;28;20431;-70
2023/07/04 13:56:50;;;;;;;1.10;1.00;;;;;;;;;;5022914;28;20461;-70
2023/07/04 13:59:16;;;;;;;0.80;0.80;;;;;;;;;;5023036;28;20842;-70
2023/07/04 14:01:42;;;;;;;0.83;0.80;;;;;;;;;;5017616;28;20498;-70
2023/07/04 14:04:08;;;;;;;1.33;1.23;;;;;;;;;;5030076;28;20509;-70
2023/07/04 14:06:35;;;;;;;2.73;1.33;;;;;;;;;;5027692;28;20821;-70
2023/07/04 14:09:01;;;;;;;0.90;0.90;;;;;;;;;;5018135;28;20455;-70
2023/07/04 14:11:27;;;;;;;0.97;0.97;;;;;;;;;;5027913;28;20447;-70
2023/07/04 14:13:54;;;;;;;0.70;0.70;;;;;;;;;;5031817;28;20455;-70
2023/07/04 14:16:23;;;;;;;0.77;0.77;;;;;;;;;;5030775;28;20461;-70
2023/07/04 14:18:49;;;;;;;4.77;0.60;;;;;;;;;;5030097;28;20497;-70
2023/07/04 14:21:15;;;;;;;2.87;0.87;;;;;;;;;;5031070;28;20443;-70
2023/07/04 14:23:42;;;;;;;0.87;0.87;;;;;;;;;;5031267;28;20451;-70
2023/07/04 14:26:13;;;;;;;0.97;0.97;;;;;;;;;;5030298;28;20951;-70
2023/07/04 14:28:39;;;;;;;1.07;1.07;;;;;;;;;;5030335;28;20458;-70
2023/07/04 14:31:05;;;;;;;1.80;0.70;;;;;;;;;;5030433;28;20806;-70
2023/07/04 14:33:31;;;;;;;0.63;0.63;;;;;;;;;;5031873;28;20431;-70
2023/07/04 14:35:57;;;;;;;0.73;0.73;;;;;;;;;;5029469;28;20439;-70
2023/07/04 14:38:24;;;;;;;1.00;0.97;;;;;;;;;;5029090;28;21001;-70
2023/07/04 14:40:50;;;;;;;0.60;0.60;;;;;;;;;;5030770;28;20454;-70
2023/07/04 14:43:16;;;;;;;1.10;0.93;;;;;;;;;;5031385;28;20435;-70
2023/07/04 14:45:42;;;;;;;0.50;0.50;;;;;;;;;;5031079;28;20438;-70